Time;durP1;ratioP1;P1;durP2;ratioP2;P2;SDS_P1;SDS_P2;PMS_P1;PMS_P2;Temp;Humidity;BMP_temperature;BMP_pressure;BME280_temperature;BME280_humidity;BME280_pressure;Samples;Min_cycle;Max_cycle;Signal;HPM_P1;HPM_P2
2023/10/03 00:00:04;;;;;;;19.77;11.70;;;14.90;99.90;;;;;;4973581;28;20449;-51
2023/10/03 00:02:32;;;;;;;22.87;13.50;;;14.90;99.90;;;;;;4973606;28;20505;-51
2023/10/03 00:04:59;;;;;;;20.37;12.37;;;15.00;99.90;;;;;;4972757;28;20517;-50
2023/10/03 00:07:26;;;;;;;20.97;13.03;;;14.90;99.90;;;;;;4973410;28;20966;-51
2023/10/03 00:09:53;;;;;;;17.00;12.93;;;14.90;99.90;;;;;;4971278;28;20910;-50
2023/10/03 00:12:19;;;;;;;21.77;13.10;;;14.90;99.90;;;;;;4972621;28;20501;-50
2023/10/03 00:14:47;;;;;;;26.10;13.80;;;14.90;99.90;;;;;;4973229;28;20998;-49
2023/10/03 00:17:14;;;;;;;16.80;12.10;;;14.80;99.90;;;;;;4973310;28;20449;-52
2023/10/03 00:19:41;;;;;;;17.93;12.53;;;14.80;99.90;;;;;;4980017;28;20473;-51
2023/10/03 00:22:07;;;;;;;22.33;13.87;;;14.80;99.90;;;;;;4969666;28;20469;-51
2023/10/03 00:24:34;;;;;;;18.17;13.13;;;14.80;99.90;;;;;;4970164;28;20485;-51
2023/10/03 00:27:00;;;;;;;25.90;14.20;;;14.80;99.90;;;;;;4969400;28;20469;-50
2023/10/03 00:29:29;;;;;;;23.97;12.93;;;14.80;99.90;;;;;;4972960;28;20484;-51
2023/10/03 00:31:59;;;;;;;22.80;14.50;;;14.80;99.90;;;;;;4972916;28;20991;-51
2023/10/03 00:34:27;;;;;;;20.07;12.73;;;14.80;99.90;;;;;;4975348;28;20473;-50
2023/10/03 00:36:54;;;;;;;21.93;11.90;;;14.80;99.90;;;;;;4971281;28;20897;-51
2023/10/03 00:39:22;;;;;;;21.83;13.13;;;14.80;99.90;;;;;;4972648;28;20488;-51
2023/10/03 00:41:48;;;;;;;19.33;12.63;;;14.70;99.90;;;;;;4971595;28;20473;-51
2023/10/03 00:44:19;;;;;;;18.73;12.73;;;14.80;99.90;;;;;;4972153;28;20556;-51
2023/10/03 00:46:46;;;;;;;18.40;12.50;;;14.80;99.90;;;;;;4972950;28;20453;-51
2023/10/03 00:49:15;;;;;;;17.03;11.67;;;14.80;99.90;;;;;;4972637;28;20875;-51
2023/10/03 00:51:45;;;;;;;17.33;12.17;;;14.70;99.90;;;;;;4970507;28;20466;-51
2023/10/03 00:54:12;;;;;;;20.53;11.93;;;14.60;99.90;;;;;;4969970;28;20504;-51
2023/10/03 00:56:43;;;;;;;18.87;12.03;;;14.70;99.90;;;;;;4972914;28;20468;-52
2023/10/03 00:59:10;;;;;;;22.17;13.13;;;14.70;99.90;;;;;;4972273;28;20480;-52
2023/10/03 01:01:37;;;;;;;30.47;11.90;;;14.70;99.90;;;;;;4971759;28;20923;-50
2023/10/03 01:04:05;;;;;;;24.67;11.67;;;14.70;99.90;;;;;;4972426;28;20596;-50
2023/10/03 01:06:33;;;;;;;18.67;12.30;;;14.70;99.90;;;;;;4971785;28;20459;-51
2023/10/03 01:09:00;;;;;;;19.13;12.70;;;14.70;99.90;;;;;;4972678;28;20476;-52
2023/10/03 01:11:28;;;;;;;21.47;12.83;;;14.70;99.90;;;;;;4974665;28;20456;-51
2023/10/03 01:14:36;;;;;;;20.83;12.33;;;14.70;99.90;;;;;;4976745;28;20468;-50
2023/10/03 01:17:06;;;;;;;17.03;11.53;;;14.70;99.90;;;;;;4968069;28;20473;-50
2023/10/03 01:19:32;;;;;;;21.67;12.43;;;14.60;99.90;;;;;;4970324;28;20476;-51
2023/10/03 01:22:01;;;;;;;19.00;12.67;;;14.60;99.90;;;;;;4971305;28;20500;-50
2023/10/03 01:24:29;;;;;;;15.80;11.07;;;14.50;99.90;;;;;;4973369;28;20516;-51
2023/10/03 01:26:56;;;;;;;19.33;11.93;;;14.60;99.90;;;;;;4971386;28;20461;-50
2023/10/03 01:29:23;;;;;;;22.30;11.17;;;14.50;99.90;;;;;;4971192;28;20473;-51
2023/10/03 01:31:51;;;;;;;19.90;12.77;;;14.50;99.90;;;;;;4968892;28;20473;-52
2023/10/03 01:34:17;;;;;;;19.77;12.13;;;14.40;99.90;;;;;;4973039;28;20904;-50
2023/10/03 01:36:47;;;;;;;18.30;11.80;;;14.40;99.90;;;;;;4985142;28;20460;-51
2023/10/03 01:39:14;;;;;;;15.53;10.40;;;14.40;99.90;;;;;;4980071;28;20465;-51
2023/10/03 01:41:42;;;;;;;17.33;10.97;;;14.40;99.90;;;;;;4973529;28;20902;-51
2023/10/03 01:44:09;;;;;;;22.20;12.60;;;14.40;99.90;;;;;;4969716;28;20489;-51
2023/10/03 01:46:38;;;;;;;16.77;11.60;;;14.30;99.90;;;;;;4971326;28;20474;-52
2023/10/03 01:49:06;;;;;;;14.83;10.77;;;14.30;99.90;;;;;;4972212;28;20454;-50
2023/10/03 01:51:33;;;;;;;19.53;11.73;;;14.30;99.90;;;;;;4970797;28;20469;-52
2023/10/03 01:54:00;;;;;;;25.73;11.33;;;14.30;99.90;;;;;;4979112;28;20466;-50
2023/10/03 01:56:27;;;;;;;20.30;11.43;;;14.40;99.90;;;;;;4971479;28;20465;-50
2023/10/03 01:58:55;;;;;;;20.17;12.53;;;14.40;99.90;;;;;;4970960;28;20972;-51
2023/10/03 02:01:23;;;;;;;20.80;11.77;;;14.40;99.90;;;;;;4977165;28;20512;-52
2023/10/03 02:03:50;;;;;;;28.63;12.20;;;14.50;99.90;;;;;;4969347;28;20485;-50
2023/10/03 02:06:17;;;;;;;19.43;11.80;;;14.50;99.90;;;;;;4970883;28;20465;-50
2023/10/03 02:08:43;;;;;;;15.30;11.10;;;14.70;99.90;;;;;;4976401;28;20465;-50
2023/10/03 02:11:11;;;;;;;16.07;11.17;;;14.70;99.90;;;;;;4973555;28;20461;-50
2023/10/03 02:13:40;;;;;;;16.70;11.60;;;14.70;99.90;;;;;;4971699;28;20604;-50
2023/10/03 02:16:10;;;;;;;20.53;10.77;;;14.70;99.90;;;;;;4974523;28;20461;-51
2023/10/03 02:18:37;;;;;;;20.60;11.90;;;14.70;99.90;;;;;;4975864;28;20559;-51
2023/10/03 02:21:04;;;;;;;15.70;11.90;;;14.80;99.90;;;;;;4976103;28;20821;-50
2023/10/03 02:23:32;;;;;;;22.13;11.77;;;14.90;99.90;;;;;;4983919;28;20487;-51
2023/10/03 02:26:07;;;;;;;18.60;11.10;;;14.90;99.90;;;;;;4975718;28;20467;-51
2023/10/03 02:28:34;;;;;;;28.37;11.80;;;15.00;99.90;;;;;;4972413;28;20469;-50
2023/10/03 02:31:03;;;;;;;20.73;12.67;;;15.10;99.90;;;;;;4975201;28;20438;-50
2023/10/03 02:33:32;;;;;;;20.70;12.10;;;15.10;99.90;;;;;;4967493;28;20466;-51
2023/10/03 02:35:58;;;;;;;21.73;12.07;;;15.30;99.90;;;;;;4974634;28;20473;-50
2023/10/03 02:38:25;;;;;;;18.07;11.83;;;15.30;99.90;;;;;;4974203;28;20834;-50
2023/10/03 02:40:54;;;;;;;19.03;11.17;;;15.40;99.90;;;;;;4975108;28;20445;-50
2023/10/03 02:43:21;;;;;;;20.47;11.97;;;15.40;99.90;;;;;;4973908;28;20576;-50
2023/10/03 02:45:48;;;;;;;23.30;11.23;;;15.40;99.90;;;;;;4973434;28;20576;-50
2023/10/03 02:48:15;;;;;;;15.40;11.57;;;15.40;99.90;;;;;;4984415;28;20449;-51
2023/10/03 02:50:46;;;;;;;20.60;13.10;;;15.40;99.90;;;;;;4980292;28;20468;-50
2023/10/03 02:53:19;;;;;;;17.33;11.10;;;15.30;99.90;;;;;;4974853;28;20536;-50
2023/10/03 02:55:46;;;;;;;21.23;11.77;;;15.40;99.90;;;;;;4974249;28;20489;-51
2023/10/03 02:58:13;;;;;;;28.73;11.47;;;15.30;99.90;;;;;;4974679;28;20964;-50
2023/10/03 03:00:40;;;;;;;19.40;11.60;;;15.30;99.90;;;;;;4974374;28;20525;-50
2023/10/03 03:03:09;;;;;;;19.60;10.90;;;15.30;99.90;;;;;;4972789;28;20490;-51
2023/10/03 03:05:36;;;;;;;18.30;10.50;;;15.30;99.90;;;;;;4973831;28;20983;-51
2023/10/03 03:08:21;;;;;;;19.03;11.83;;;15.30;99.90;;;;;;4974676;28;20449;-51
2023/10/03 03:10:50;;;;;;;25.07;11.53;;;15.20;99.90;;;;;;4967979;28;20469;-53
2023/10/03 03:13:18;;;;;;;13.60;10.37;;;15.30;99.90;;;;;;4974201;28;20569;-50
2023/10/03 03:15:51;;;;;;;18.40;12.00;;;15.30;99.90;;;;;;4982458;28;20492;-51
2023/10/03 03:18:19;;;;;;;21.03;12.60;;;15.30;99.90;;;;;;4973963;28;20450;-51
2023/10/03 03:20:50;;;;;;;19.93;11.80;;;15.20;99.90;;;;;;4971528;28;20835;-51
2023/10/03 03:23:19;;;;;;;32.07;12.37;;;15.20;99.90;;;;;;4973787;28;20465;-51
2023/10/03 03:25:49;;;;;;;22.73;11.00;;;15.30;99.90;;;;;;4974072;28;20481;-49
2023/10/03 03:28:16;;;;;;;26.70;11.97;;;15.20;99.90;;;;;;4972673;28;20524;-51
2023/10/03 03:30:45;;;;;;;21.27;11.60;;;15.20;99.90;;;;;;4972985;28;20462;-52
2023/10/03 03:33:14;;;;;;;23.83;11.20;;;15.20;99.90;;;;;;4973418;28;20573;-50
2023/10/03 03:35:41;;;;;;;21.73;12.27;;;15.10;99.90;;;;;;4972228;28;20560;-50
2023/10/03 03:38:14;;;;;;;16.97;11.07;;;15.10;87.50;;;;;;4973924;28;20446;-51
2023/10/03 03:40:46;;;;;;;17.87;10.70;;;15.10;87.40;;;;;;4986420;28;20484;-50
2023/10/03 03:43:16;;;;;;;16.97;10.43;;;15.10;74.70;;;;;;4979771;28;20556;-50
2023/10/03 03:45:43;;;;;;;16.57;11.90;;;15.10;23.70;;;;;;4974158;28;20517;-50
2023/10/03 03:48:10;;;;;;;29.50;12.80;;;15.10;26.10;;;;;;4972414;28;20468;-50
2023/10/03 03:50:37;;;;;;;19.80;10.97;;;15.10;28.00;;;;;;4981397;28;20444;-51
2023/10/03 03:53:04;;;;;;;17.93;10.77;;;15.10;29.60;;;;;;4973734;28;20478;-50
2023/10/03 03:55:31;;;;;;;27.63;12.60;;;15.10;34.70;;;;;;4973848;28;20438;-50
2023/10/03 03:58:00;;;;;;;19.20;11.40;;;15.10;37.00;;;;;;4974061;28;20445;-50
2023/10/03 04:00:28;;;;;;;23.23;11.57;;;15.20;35.50;;;;;;4973717;28;20999;-52
2023/10/03 04:02:58;;;;;;;22.63;12.40;;;15.20;41.30;;;;;;4971549;28;20487;-51
2023/10/03 04:05:26;;;;;;;19.47;10.93;;;15.20;43.10;;;;;;4973404;28;20576;-51
2023/10/03 04:07:53;;;;;;;24.60;11.70;;;15.20;44.20;;;;;;4981451;28;20477;-50
2023/10/03 04:10:21;;;;;;;26.23;12.60;;;15.30;46.00;;;;;;4970998;28;20473;-51
2023/10/03 04:12:49;;;;;;;19.37;11.67;;;15.20;45.30;;;;;;4973484;28;20466;-51
2023/10/03 04:15:18;;;;;;;22.53;12.13;;;15.20;45.80;;;;;;4973415;28;20457;-51
2023/10/03 04:17:48;;;;;;;20.03;11.13;;;15.20;45.50;;;;;;4972152;28;20461;-51
2023/10/03 04:20:19;;;;;;;24.20;12.90;;;15.20;44.90;;;;;;4970516;28;20468;-51
2023/10/03 04:22:48;;;;;;;20.90;11.60;;;15.20;44.40;;;;;;4973170;28;20495;-51
2023/10/03 04:25:15;;;;;;;20.93;13.40;;;15.30;46.70;;;;;;4981037;28;20573;-51
2023/10/03 04:27:42;;;;;;;30.17;14.70;;;15.20;46.50;;;;;;4986063;28;20842;-51
2023/10/03 04:30:10;;;;;;;22.33;12.73;;;15.20;45.70;;;;;;4976296;28;20470;-51
2023/10/03 04:32:38;;;;;;;22.77;13.37;;;15.20;44.10;;;;;;4970473;28;20607;-51
2023/10/03 04:35:11;;;;;;;22.90;13.67;;;15.20;44.00;;;;;;4972467;28;20503;-52
2023/10/03 04:37:38;;;;;;;26.83;13.30;;;15.20;43.60;;;;;;4971273;28;20966;-51
2023/10/03 04:40:06;;;;;;;30.50;12.83;;;15.20;43.40;;;;;;4972540;28;20493;-51
2023/10/03 04:42:35;;;;;;;24.00;13.17;;;15.20;44.10;;;;;;4965459;28;20532;-56
2023/10/03 04:45:05;;;;;;;23.87;13.47;;;15.20;44.30;;;;;;4971495;28;20983;-55
2023/10/03 04:47:32;;;;;;;28.53;14.53;;;15.30;46.00;;;;;;4973950;28;21041;-56
2023/10/03 04:50:01;;;;;;;31.80;13.50;;;15.30;47.00;;;;;;4971461;28;21050;-55
2023/10/03 04:52:29;;;;;;;22.60;14.50;;;15.30;48.20;;;;;;4978956;28;20477;-55
2023/10/03 04:54:55;;;;;;;22.80;13.70;;;15.30;49.00;;;;;;4973543;28;21027;-57
2023/10/03 04:57:22;;;;;;;25.70;14.07;;;15.30;50.60;;;;;;4979181;28;20511;-55
2023/10/03 04:59:48;;;;;;;24.53;14.10;;;15.30;52.30;;;;;;4970538;28;20457;-55
2023/10/03 05:02:15;;;;;;;25.83;13.27;;;15.40;52.70;;;;;;4972738;28;20544;-56
2023/10/03 05:04:41;;;;;;;24.60;13.97;;;15.40;53.30;;;;;;4972897;28;20484;-55
2023/10/03 05:07:10;;;;;;;27.43;13.80;;;15.40;53.90;;;;;;4972728;28;20454;-55
2023/10/03 05:09:36;;;;;;;27.57;14.60;;;15.50;56.60;;;;;;4971771;28;20471;-57
2023/10/03 05:12:04;;;;;;;28.80;14.87;;;15.50;61.50;;;;;;4972603;28;20508;-55
2023/10/03 05:14:31;;;;;;;23.97;13.97;;;15.60;63.00;;;;;;4971405;28;20469;-55
2023/10/03 05:17:00;;;;;;;26.33;14.57;;;15.60;64.10;;;;;;4971274;28;20548;-56
2023/10/03 05:19:26;;;;;;;26.30;14.70;;;15.70;65.70;;;;;;4972772;28;20457;-55
2023/10/03 05:21:53;;;;;;;22.90;15.40;;;15.70;67.30;;;;;;4972560;28;20442;-55
2023/10/03 05:24:21;;;;;;;28.63;15.20;;;15.70;70.40;;;;;;4972401;28;20469;-56
2023/10/03 05:26:48;;;;;;;25.37;14.10;;;15.80;73.20;;;;;;4970041;28;20597;-56
2023/10/03 05:29:15;;;;;;;27.40;15.90;;;15.90;79.20;;;;;;4971390;28;20469;-56
2023/10/03 05:31:42;;;;;;;28.83;14.23;;;15.90;79.50;;;;;;4972729;28;20449;-56
2023/10/03 05:34:09;;;;;;;32.57;16.13;;;16.00;81.80;;;;;;4972557;28;20888;-56
2023/10/03 05:36:35;;;;;;;23.73;14.37;;;16.00;84.60;;;;;;4964786;28;20446;-55
2023/10/03 05:39:03;;;;;;;25.17;14.40;;;16.10;88.10;;;;;;4972449;28;20931;-56
2023/10/03 05:41:30;;;;;;;26.70;14.20;;;16.20;91.30;;;;;;4970997;28;20465;-57
2023/10/03 05:43:57;;;;;;;29.27;15.33;;;16.20;92.70;;;;;;4970446;28;20537;-55
2023/10/03 05:46:24;;;;;;;26.57;15.93;;;16.30;93.90;;;;;;4973427;28;20489;-56
2023/10/03 05:48:51;;;;;;;27.40;15.43;;;16.30;99.90;;;;;;4976133;28;20477;-56
2023/10/03 05:51:20;;;;;;;26.70;14.30;;;16.40;99.90;;;;;;4976659;28;20453;-56
2023/10/03 05:53:47;;;;;;;28.37;15.57;;;16.50;99.90;;;;;;4975461;28;20488;-56
2023/10/03 05:56:13;;;;;;;27.03;14.83;;;16.40;99.90;;;;;;4975277;28;20465;-57
2023/10/03 05:58:43;;;;;;;22.60;13.17;;;16.50;99.90;;;;;;4972646;28;22778;-57
2023/10/03 06:01:12;;;;;;;25.47;15.27;;;16.50;99.90;;;;;;4975373;28;20453;-59
2023/10/03 06:03:38;;;;;;;30.20;16.50;;;16.60;99.90;;;;;;4972213;28;20639;-54
2023/10/03 06:06:05;;;;;;;23.60;13.43;;;16.60;99.90;;;;;;4980069;28;20528;-55
2023/10/03 06:08:32;;;;;;;26.37;15.13;;;16.70;99.90;;;;;;4983542;28;20457;-55
2023/10/03 06:11:00;;;;;;;28.27;15.67;;;16.70;99.90;;;;;;4974966;28;20465;-55
2023/10/03 06:13:26;;;;;;;33.43;14.53;;;16.70;99.90;;;;;;4972172;28;20485;-56
2023/10/03 06:15:58;;;;;;;28.67;16.13;;;16.80;99.90;;;;;;4972864;28;20453;-55
2023/10/03 06:18:27;;;;;;;25.03;15.00;;;16.80;99.90;;;;;;4967020;28;20485;-55
2023/10/03 06:20:53;;;;;;;35.70;16.03;;;16.80;99.90;;;;;;4973449;28;20457;-56
2023/10/03 06:23:20;;;;;;;30.37;16.63;;;16.80;99.90;;;;;;4975787;28;20536;-56
2023/10/03 06:25:48;;;;;;;30.63;15.90;;;16.80;99.90;;;;;;4980578;28;20491;-56
2023/10/03 06:28:14;;;;;;;30.20;15.50;;;16.80;99.90;;;;;;4977684;28;20465;-55
2023/10/03 06:30:41;;;;;;;34.70;22.80;;;16.80;99.90;;;;;;4980422;28;20469;-56
2023/10/03 06:33:10;;;;;;;28.53;15.10;;;16.90;99.90;;;;;;4970199;28;20551;-56
2023/10/03 06:35:37;;;;;;;34.40;16.77;;;16.90;99.90;;;;;;4972867;28;20463;-56
2023/10/03 06:38:04;;;;;;;32.57;16.03;;;16.90;99.90;;;;;;4977860;28;20508;-55
2023/10/03 06:40:31;;;;;;;29.57;16.47;;;16.90;99.90;;;;;;4987098;28;20489;-56
2023/10/03 06:42:57;;;;;;;30.10;18.00;;;17.00;99.90;;;;;;4977971;28;20547;-54
2023/10/03 06:45:24;;;;;;;30.07;17.17;;;17.00;99.90;;;;;;4970945;28;20490;-55
2023/10/03 06:47:50;;;;;;;28.80;15.43;;;17.10;99.90;;;;;;4974528;28;20541;-56
2023/10/03 06:50:18;;;;;;;27.80;16.90;;;17.10;99.90;;;;;;4973242;28;20462;-58
2023/10/03 06:52:47;;;;;;;33.23;17.73;;;17.20;99.90;;;;;;4975004;28;20509;-58
2023/10/03 06:55:15;;;;;;;36.33;18.20;;;17.30;99.90;;;;;;4975457;28;20446;-58
2023/10/03 06:57:42;;;;;;;30.10;17.47;;;17.30;99.90;;;;;;4972866;28;20471;-57
2023/10/03 07:00:13;;;;;;;33.20;17.30;;;17.40;99.90;;;;;;4990518;28;20511;-58
2023/10/03 07:02:39;;;;;;;34.70;18.57;;;17.40;99.90;;;;;;4972104;28;20477;-57
2023/10/03 07:05:07;;;;;;;29.57;16.70;;;17.50;99.90;;;;;;4970633;28;20469;-58
2023/10/03 07:07:35;;;;;;;34.90;16.63;;;17.50;99.90;;;;;;4975652;28;20552;-58
2023/10/03 07:10:03;;;;;;;35.53;18.00;;;17.60;99.90;;;;;;4993814;28;20803;-57
2023/10/03 07:12:30;;;;;;;28.40;16.33;;;17.70;99.90;;;;;;4991595;28;21002;-57
2023/10/03 07:14:57;;;;;;;30.87;17.70;;;17.80;99.90;;;;;;4979561;28;20864;-57
2023/10/03 07:17:24;;;;;;;34.73;18.50;;;17.80;99.90;;;;;;4977487;28;20450;-56
2023/10/03 07:19:51;;;;;;;30.70;18.23;;;17.90;99.90;;;;;;4994141;28;20444;-57
2023/10/03 07:22:19;;;;;;;31.03;17.73;;;18.00;99.90;;;;;;4977304;28;20474;-57
2023/10/03 07:24:47;;;;;;;31.80;17.43;;;18.00;99.90;;;;;;4977837;28;20474;-57
2023/10/03 07:27:15;;;;;;;34.67;18.30;;;18.10;99.90;;;;;;4988378;28;20504;-58
2023/10/03 07:29:42;;;;;;;32.80;16.40;;;18.10;99.90;;;;;;4994352;28;20457;-57
2023/10/03 07:32:12;;;;;;;34.20;19.07;;;18.20;99.90;;;;;;4985747;28;20463;-58
2023/10/03 07:34:42;;;;;;;36.10;17.67;;;18.20;99.90;;;;;;4978479;28;20468;-58
2023/10/03 07:37:09;;;;;;;31.23;18.10;;;18.20;99.90;;;;;;4981924;28;20553;-58
2023/10/03 07:39:35;;;;;;;29.50;17.00;;;18.30;99.90;;;;;;4974745;28;20813;-57
2023/10/03 07:42:04;;;;;;;28.73;17.10;;;18.30;99.90;;;;;;4974120;28;20887;-58
2023/10/03 07:44:31;;;;;;;33.47;18.00;;;18.30;99.90;;;;;;4982866;28;20465;-58
2023/10/03 07:46:57;;;;;;;38.73;17.47;;;18.30;99.90;;;;;;4987358;28;20543;-57
2023/10/03 07:49:24;;;;;;;33.50;18.90;;;18.40;99.90;;;;;;4984234;28;20466;-58
2023/10/03 07:51:53;;;;;;;30.20;16.43;;;18.40;99.90;;;;;;4987339;28;20584;-57
2023/10/03 07:54:20;;;;;;;30.57;16.37;;;18.50;99.90;;;;;;4992448;28;20491;-57
2023/10/03 07:56:48;;;;;;;33.03;18.27;;;18.60;99.90;;;;;;4981921;28;20916;-57
2023/10/03 07:59:16;;;;;;;37.83;20.00;;;18.80;99.90;;;;;;4972689;28;20556;-57
2023/10/03 08:01:42;;;;;;;37.60;17.43;;;18.90;99.90;;;;;;4977555;28;20912;-58
2023/10/03 08:04:12;;;;;;;34.20;19.50;;;19.10;99.90;;;;;;4977756;28;20512;-57
2023/10/03 08:06:40;;;;;;;35.53;18.80;;;19.20;99.90;;;;;;4985244;28;20485;-57
2023/10/03 08:09:08;;;;;;;34.97;19.20;;;19.20;99.90;;;;;;4974367;28;20466;-58
2023/10/03 08:11:36;;;;;;;36.00;17.97;;;19.30;99.90;;;;;;4980891;28;20465;-57
2023/10/03 08:14:11;;;;;;;32.30;17.60;;;19.50;99.90;;;;;;4988467;28;21002;-59
2023/10/03 08:16:40;;;;;;;32.20;18.33;;;19.70;99.90;;;;;;4973631;28;20520;-58
2023/10/03 08:19:08;;;;;;;42.70;17.83;;;19.80;99.90;;;;;;4981466;28;20503;-57
2023/10/03 08:21:35;;;;;;;31.10;17.03;;;19.90;99.90;;;;;;4985252;28;20983;-58
2023/10/03 08:24:09;;;;;;;33.23;18.33;;;19.80;99.90;;;;;;4978378;28;20461;-58
2023/10/03 08:26:37;;;;;;;33.33;17.67;;;19.90;99.90;;;;;;4978898;28;20813;-57
2023/10/03 08:29:04;;;;;;;36.67;19.90;;;19.90;99.90;;;;;;4986061;28;20450;-57
2023/10/03 08:31:31;;;;;;;32.33;18.67;;;19.90;99.90;;;;;;4972305;28;20472;-57
2023/10/03 08:34:01;;;;;;;34.50;18.67;;;20.00;99.90;;;;;;4980187;28;20541;-57
2023/10/03 08:36:29;;;;;;;32.30;17.63;;;20.10;99.90;;;;;;4992332;28;20451;-58
2023/10/03 08:39:04;;;;;;;35.40;18.43;;;20.10;99.90;;;;;;4979029;28;20528;-57
2023/10/03 08:41:38;;;;;;;40.03;19.93;;;20.20;99.90;;;;;;4970589;28;20473;-56
2023/10/03 08:44:12;;;;;;;36.20;19.97;;;20.30;80.50;;;;;;4975664;28;20903;-57
2023/10/03 08:46:45;;;;;;;41.80;18.27;;;20.40;84.60;;;;;;4981306;28;20488;-59
2023/10/03 08:49:17;;;;;;;40.80;19.90;;;20.40;96.20;;;;;;4984334;28;20453;-57
2023/10/03 08:51:45;;;;;;;30.90;17.37;;;20.50;22.60;;;;;;4978196;28;20994;-57
2023/10/03 08:54:12;;;;;;;35.20;18.37;;;20.50;25.60;;;;;;4992675;28;20469;-57
2023/10/03 08:56:41;;;;;;;33.80;18.27;;;20.50;26.60;;;;;;4981499;28;20877;-57
2023/10/03 08:59:09;;;;;;;34.53;18.77;;;20.50;32.10;;;;;;4975655;28;20604;-57
2023/10/03 09:01:39;;;;;;;34.13;18.80;;;20.60;30.70;;;;;;4988351;28;20562;-57
2023/10/03 09:04:15;;;;;;;41.13;17.60;;;20.70;33.70;;;;;;4981182;28;20473;-57
2023/10/03 09:06:44;;;;;;;30.30;17.47;;;20.90;37.10;;;;;;4973328;28;20512;-57
2023/10/03 09:09:13;;;;;;;37.87;19.00;;;21.20;40.40;;;;;;4973209;28;20528;-58
2023/10/03 09:11:42;;;;;;;37.10;19.30;;;21.30;56.80;;;;;;4974951;28;21014;-57
2023/10/03 09:14:12;;;;;;;34.50;19.33;;;21.40;64.60;;;;;;4984970;28;20512;-58
2023/10/03 09:16:39;;;;;;;30.90;16.20;;;21.50;69.20;;;;;;4985251;28;20524;-57
2023/10/03 09:19:09;;;;;;;37.07;19.90;;;21.50;78.30;;;;;;4992526;28;20448;-57
2023/10/03 09:21:35;;;;;;;33.57;17.70;;;21.60;76.30;;;;;;4985151;28;20522;-57
2023/10/03 09:24:12;;;;;;;31.27;17.90;;;21.60;75.60;;;;;;4996519;28;21038;-57
2023/10/03 09:26:46;;;;;;;32.47;17.57;;;21.60;76.70;;;;;;4988560;28;20557;-57
2023/10/03 09:29:18;;;;;;;32.30;18.33;;;21.70;71.20;;;;;;4992538;28;20445;-58
2023/10/03 09:31:46;;;;;;;30.83;18.47;;;21.70;71.60;;;;;;4970619;28;20504;-57
2023/10/03 09:34:14;;;;;;;35.07;18.00;;;21.70;75.50;;;;;;4984148;28;20523;-58
2023/10/03 09:36:40;;;;;;;32.20;18.57;;;21.90;72.70;;;;;;4984636;28;20504;-57
2023/10/03 09:39:20;;;;;;;30.50;17.77;;;21.90;88.50;;;;;;4975135;28;20524;-58
2023/10/03 09:41:52;;;;;;;31.70;18.10;;;22.00;92.60;;;;;;4979732;28;20463;-57
2023/10/03 09:44:29;;;;;;;38.73;17.27;;;22.20;93.60;;;;;;4987365;28;20477;-57
2023/10/03 09:47:00;;;;;;;34.13;19.00;;;22.20;97.30;;;;;;4984687;28;20485;-57
2023/10/03 09:49:36;;;;;;;35.20;19.60;;;22.20;99.90;;;;;;4993442;28;20874;-57
2023/10/03 09:52:09;;;;;;;32.20;18.93;;;22.40;99.90;;;;;;4987565;28;20930;-58
2023/10/03 09:54:37;;;;;;;55.87;18.07;;;22.60;99.90;;;;;;4986201;28;21001;-57
2023/10/03 09:57:15;;;;;;;36.53;18.10;;;22.80;99.90;;;;;;4981002;28;20462;-57
2023/10/03 09:59:45;;;;;;;38.43;18.17;;;22.80;99.90;;;;;;4995605;28;20448;-58
2023/10/03 10:02:14;;;;;;;32.00;17.40;;;22.90;99.90;;;;;;4987276;28;20904;-58
2023/10/03 10:04:42;;;;;;;33.17;17.60;;;22.90;99.90;;;;;;4995140;28;21024;-58
2023/10/03 10:07:16;;;;;;;26.97;16.80;;;23.00;99.90;;;;;;4982468;28;20485;-58
2023/10/03 10:10:00;;;;;;;38.07;17.13;;;23.00;99.90;;;;;;4993703;28;20885;-57
2023/10/03 10:12:28;;;;;;;29.37;17.57;;;23.00;99.90;;;;;;4986257;28;20575;-57
2023/10/03 10:15:13;;;;;;;37.00;17.37;;;23.10;99.90;;;;;;4988815;28;20548;-58
2023/10/03 10:17:49;;;;;;;31.77;17.23;;;23.20;99.90;;;;;;4994568;28;20441;-58
2023/10/03 10:20:27;;;;;;;32.07;16.73;;;23.10;99.90;;;;;;4996658;28;21017;-57
2023/10/03 10:23:20;;;;;;;36.23;15.60;;;23.10;99.90;;;;;;4995014;28;20460;-58
2023/10/03 10:25:56;;;;;;;27.33;16.50;;;23.30;99.90;;;;;;4990378;28;20471;-58
2023/10/03 10:28:34;;;;;;;28.00;16.50;;;23.30;99.90;;;;;;4994456;28;20436;-58
2023/10/03 10:31:21;;;;;;;30.43;16.83;;;23.30;99.90;;;;;;4988564;28;20560;-57
2023/10/03 10:33:49;;;;;;;28.33;16.50;;;23.30;99.90;;;;;;4977986;28;20521;-57
2023/10/03 10:36:18;;;;;;;31.57;16.03;;;23.40;99.90;;;;;;4991068;28;20829;-57
2023/10/03 10:38:55;;;;;;;29.77;16.90;;;23.40;99.90;;;;;;4994779;28;20441;-57
2023/10/03 10:41:27;;;;;;;38.63;15.73;;;23.40;99.90;;;;;;4992213;28;20494;-57
2023/10/03 10:44:08;;;;;;;30.03;15.10;;;23.40;99.90;;;;;;5008100;22;20528;-54
2023/10/03 10:46:36;;;;;;;32.53;15.10;;;23.50;99.90;;;;;;5004716;28;20523;-54
2023/10/03 10:49:06;;;;;;;33.73;17.73;;;23.50;99.90;;;;;;5008281;28;20484;-54
2023/10/03 10:51:34;;;;;;;27.07;14.60;;;23.50;99.90;;;;;;4991762;28;20940;-54
2023/10/03 10:54:02;;;;;;;30.50;15.07;;;23.50;99.90;;;;;;4994088;28;20475;-54
2023/10/03 10:56:32;;;;;;;27.37;14.10;;;23.50;99.90;;;;;;4976254;28;20469;-54
2023/10/03 10:59:04;;;;;;;26.73;13.80;;;23.50;99.90;;;;;;4976049;28;20469;-54
2023/10/03 11:01:36;;;;;;;30.00;14.90;;;23.50;99.90;;;;;;4975964;28;20955;-54
2023/10/03 11:04:03;;;;;;;38.23;13.70;;;23.50;99.90;;;;;;4980339;28;20966;-53
2023/10/03 11:06:30;;;;;;;27.23;13.97;;;23.50;99.90;;;;;;4964156;28;20577;-54
2023/10/03 11:08:57;;;;;;;20.80;12.50;;;23.30;99.90;;;;;;4987488;28;20506;-54
2023/10/03 11:11:38;;;;;;;20.50;12.90;;;23.40;99.90;;;;;;4973808;28;21037;-54
2023/10/03 11:14:04;;;;;;;23.17;13.67;;;23.40;99.90;;;;;;4994038;28;20478;-53
2023/10/03 11:16:31;;;;;;;30.17;13.03;;;23.40;99.90;;;;;;4993856;28;20448;-54
2023/10/03 11:19:00;;;;;;;25.63;13.33;;;23.40;99.90;;;;;;4983785;28;20492;-53
2023/10/03 11:21:29;;;;;;;24.83;13.80;;;23.40;99.90;;;;;;4980645;28;20492;-54
2023/10/03 11:24:14;;;;;;;21.20;12.20;;;23.40;99.90;;;;;;4993696;28;20468;-53
2023/10/03 11:26:50;;;;;;;34.87;13.57;;;23.30;99.90;;;;;;4981489;28;21437;-54
2023/10/03 11:29:37;;;;;;;23.00;13.17;;;23.20;99.90;;;;;;4989796;28;20440;-54
2023/10/03 11:32:05;;;;;;;19.40;10.83;;;23.10;99.90;;;;;;4993493;28;21073;-54
2023/10/03 11:34:35;;;;;;;25.53;13.87;;;23.00;99.90;;;;;;4993611;28;20464;-54
2023/10/03 11:37:04;;;;;;;24.73;12.43;;;23.00;99.90;;;;;;4989948;28;20514;-54
2023/10/03 11:39:37;;;;;;;22.50;12.70;;;23.00;99.90;;;;;;4989967;28;20445;-54
2023/10/03 11:42:09;;;;;;;23.70;13.47;;;23.00;99.90;;;;;;4973492;28;20532;-54
2023/10/03 11:44:37;;;;;;;25.13;13.10;;;23.00;99.90;;;;;;4986747;28;20978;-55
2023/10/03 11:47:04;;;;;;;27.07;12.60;;;22.90;99.90;;;;;;4977165;28;20498;-54
2023/10/03 11:49:31;;;;;;;21.13;12.47;;;22.80;99.90;;;;;;4977088;28;20449;-54
2023/10/03 11:51:57;;;;;;;21.80;12.63;;;22.80;99.90;;;;;;4993399;28;20503;-55
2023/10/03 11:54:24;;;;;;;23.90;12.23;;;22.60;99.90;;;;;;4993164;28;20470;-55
2023/10/03 11:56:51;;;;;;;23.60;12.20;;;22.50;99.90;;;;;;4968594;28;20458;-54
2023/10/03 11:59:19;;;;;;;31.43;12.50;;;22.40;99.90;;;;;;4966302;28;20540;-54
2023/10/03 12:01:48;;;;;;;21.73;12.30;;;22.40;99.90;;;;;;4965109;28;20466;-54
2023/10/03 12:04:15;;;;;;;21.97;12.43;;;22.30;99.90;;;;;;4989091;28;20473;-54
2023/10/03 12:06:42;;;;;;;18.67;11.97;;;21.90;80.10;;;;;;4968298;28;20473;-53
2023/10/03 12:09:09;;;;;;;21.63;12.90;;;21.60;56.40;;;;;;4987732;28;20474;-53
2023/10/03 12:11:37;;;;;;;22.43;12.47;;;21.50;54.20;;;;;;4977230;28;20472;-55
2023/10/03 12:14:04;;;;;;;26.90;12.27;;;21.40;52.50;;;;;;4979212;28;20465;-55
2023/10/03 12:16:32;;;;;;;28.17;13.20;;;21.40;41.10;;;;;;4992863;28;20503;-54
2023/10/03 12:18:59;;;;;;;23.30;13.20;;;21.30;40.30;;;;;;4989954;28;20527;-54
2023/10/03 12:21:26;;;;;;;21.13;12.50;;;21.30;40.30;;;;;;4967786;28;20466;-55
2023/10/03 12:23:52;;;;;;;23.40;12.50;;;21.20;37.90;;;;;;4977466;28;20528;-53
2023/10/03 12:26:19;;;;;;;22.73;13.13;;;21.20;40.40;;;;;;4987595;28;20542;-54
2023/10/03 12:28:45;;;;;;;27.00;12.67;;;21.20;35.90;;;;;;4984462;28;20484;-54
2023/10/03 12:31:12;;;;;;;20.90;12.03;;;21.10;30.90;;;;;;4992537;28;20989;-53
2023/10/03 12:33:40;;;;;;;24.30;13.07;;;21.10;25.90;;;;;;4969479;28;20517;-53
2023/10/03 12:36:07;;;;;;;23.90;11.10;;;21.10;40.40;;;;;;4978697;28;20565;-55